Time;durP1;ratioP1;P1;durP2;ratioP2;P2;SDS_P1;SDS_P2;PMS_P1;PMS_P2;Temp;Humidity;BMP_temperature;BMP_pressure;BME280_temperature;BME280_humidity;BME280_pressure;Samples;Min_cycle;Max_cycle;Signal;HPM_P1;HPM_P2
2023/03/05 00:01:35;;;;;;;;;;;;;;;;;;6224366;23;19928;-85
2023/03/05 00:04:01;;;;;;;;;;;;;;;;;;6182915;23;20002;-85
2023/03/05 00:06:27;;;;;;;;;;;;;;;;;;6209814;23;19936;-85
2023/03/05 00:08:57;;;;;;;;;;;;;;;;;;6207505;23;19962;-85
2023/03/05 00:11:28;;;;;;;;;;;;;;;;;;6184948;23;19915;-86
2023/03/05 00:13:57;;;;;;;;;;;;;;;;;;6208033;23;20017;-86
2023/03/05 00:16:25;;;;;;;;;;;;;;;;;;6181738;23;19916;-85
2023/03/05 00:18:51;;;;;;;;;;;;;;;;;;6185893;23;19916;-85
2023/03/05 00:21:17;;;;;;;;;;;;;;;;;;6183997;23;19991;-85
2023/03/05 00:23:43;;;;;;;;;;;;;;;;;;6206169;23;19931;-85
2023/03/05 00:26:09;;;;;;;;;;;;;;;;;;6210865;23;20371;-85
2023/03/05 00:28:38;;;;;;;;;;;;;;;;;;6186676;23;19926;-85
2023/03/05 00:31:04;;;;;;;;;;;;;;;;;;6186512;23;19915;-85
2023/03/05 00:33:33;;;;;;;;;;;;;;;;;;6183451;23;20004;-86
2023/03/05 00:36:01;;;;;;;;;;;;;;;;;;6187158;23;19919;-85
2023/03/05 00:41:51;;;;;;;;;;;;;;;;;;6154774;23;19916;-86
2023/03/05 00:47:37;;;;;;;;;;;;;;;;;;6248233;23;19915;-85
2023/03/05 00:56:48;;;;;;;;;;;;;;;;;;6060042;23;19918;-85
2023/03/05 00:59:16;;;;;;;;;;;;;;;;;;6007992;23;19921;-86
2023/03/05 01:20:00;;;;;;;;;;;;;;;;;;6003215;23;19925;-86
2023/03/05 01:22:47;;;;;;;;;;;;;;;;;;6005525;23;19974;-85
2023/03/05 01:25:13;;;;;;;;;;;;;;;;;;5992080;23;20005;-85
2023/03/05 01:27:39;;;;;;;;;;;;;;;;;;6021444;23;20004;-85
2023/03/05 01:30:06;;;;;;;;;;;;;;;;;;6042458;23;19973;-85
2023/03/05 01:32:44;;;;;;;;;;;;;;;;;;6044226;23;19924;-85
2023/03/05 01:35:12;;;;;;;;;;;;;;;;;;6040422;23;19992;-85
2023/03/05 01:37:38;;;;;;;;;;;;;;;;;;6091665;23;19996;-85
2023/03/05 01:40:07;;;;;;;;;;;;;;;;;;6043149;23;19921;-85
2023/03/05 01:42:33;;;;;;;;;;;;;;;;;;6088597;23;19921;-85
2023/03/05 01:45:01;;;;;;;;;;;;;;;;;;6080875;23;19925;-85
2023/03/05 01:47:27;;;;;;;;;;;;;;;;;;6091681;23;19999;-85
2023/03/05 01:49:53;;;;;;;;;;;;;;;;;;6073586;23;19924;-85
2023/03/05 01:52:24;;;;;;;;;;;;;;;;;;6124974;23;19927;-86
2023/03/05 01:54:50;;;;;;;;;;;;;;;;;;6126542;23;19967;-84
2023/03/05 01:57:19;;;;;;;;;;;;;;;;;;6123916;23;20328;-85
2023/03/05 01:59:48;;;;;;;;;;;;;;;;;;6186520;22;19919;-87
2023/03/05 02:02:21;;;;;;;;;;;;;;;;;;6200698;23;19954;-87
2023/03/05 02:04:56;;;;;;;;;;;;;;;;;;6212759;23;20073;-87
2023/03/05 02:07:36;;;;;;;;;;;;;;;;;;6213099;23;20403;-86
2023/03/05 02:10:02;;;;;;;;;;;;;;;;;;6188561;23;20358;-86
2023/03/05 02:12:31;;;;;;;;;;;;;;;;;;6213126;23;19927;-86
2023/03/05 02:14:58;;;;;;;;;;;;;;;;;;6188664;23;19916;-86
2023/03/05 02:17:26;;;;;;;;;;;;;;;;;;6189707;23;19919;-86
2023/03/05 02:19:52;;;;;;;;;;;;;;;;;;6214497;23;19919;-86
2023/03/05 02:22:21;;;;;;;;;;;;;;;;;;6188225;23;19919;-86
2023/03/05 02:24:49;;;;;;;;;;;;;;;;;;6213751;23;20231;-86
2023/03/05 02:27:16;;;;;;;;;;;;;;;;;;6188035;23;19970;-86
2023/03/05 02:29:57;;;;;;;;;;;;;;;;;;6188233;23;20248;-86
2023/03/05 02:32:27;;;;;;;;;;;;;;;;;;6215428;23;19942;-86
2023/03/05 02:35:10;;;;;;;;;;;;;;;;;;6189496;23;19926;-86
2023/03/05 02:37:44;;;;;;;;;;;;;;;;;;6214458;23;19920;-86
2023/03/05 02:40:10;;;;;;;;;;;;;;;;;;6215440;23;19923;-86
2023/03/05 02:42:39;;;;;;;;;;;;;;;;;;6191380;23;19990;-86
2023/03/05 02:45:05;;;;;;;;;;;;;;;;;;6189583;23;20354;-86
2023/03/05 02:47:33;;;;;;;;;;;;;;;;;;6187323;23;19919;-86
2023/03/05 02:50:02;;;;;;;;;;;;;;;;;;6185899;23;20279;-86
2023/03/05 02:52:34;;;;;;;;;;;;;;;;;;6186223;23;19965;-86
2023/03/05 02:55:00;;;;;;;;;;;;;;;;;;6185438;23;20237;-86
2023/03/05 02:57:26;;;;;;;;;;;;;;;;;;6184645;23;19957;-86
2023/03/05 02:59:52;;;;;;;;;;;;;;;;;;6185763;23;19924;-86
2023/03/05 03:02:21;;;;;;;;;;;;;;;;;;6184841;23;20324;-86
2023/03/05 03:04:47;;;;;;;;;;;;;;;;;;6184080;23;19923;-86
2023/03/05 03:07:16;;;;;;;;;;;;;;;;;;6184799;23;19916;-86
2023/03/05 03:09:47;;;;;;;;;;;;;;;;;;6188058;23;19927;-86
2023/03/05 03:12:13;;;;;;;;;;;;;;;;;;6213328;23;19926;-86
2023/03/05 03:14:47;;;;;;;;;;;;;;;;;;6187728;23;19982;-86
2023/03/05 03:17:13;;;;;;;;;;;;;;;;;;6213858;23;20343;-86
2023/03/05 03:19:42;;;;;;;;;;;;;;;;;;6186638;23;19958;-86
2023/03/05 03:22:08;;;;;;;;;;;;;;;;;;6185788;23;20333;-86
2023/03/05 03:24:44;;;;;;;;;;;;;;;;;;6189391;23;19950;-85
2023/03/05 03:27:31;;;;;;;;;;;;;;;;;;6212830;23;19923;-85
2023/03/05 03:48:40;;;;;;;;;;;;;;;;;;6206993;23;19965;-86
2023/03/05 04:00:23;;;;;;;;;;;;;;;;;;6101343;23;19979;-85
2023/03/05 04:06:37;;;;;;;;;;;;;;;;;;6122042;23;19921;-86
2023/03/05 04:09:43;;;;;;;;;;;;;;;;;;;;;
2023/03/05 04:21:32;;;;;;;;;;;;;;;;;;6025563;23;20246;-86
2023/03/05 04:36:04;;;;;;;;;;;;;;;;;;;;;
2023/03/05 04:45:09;;;;;;;;;;;;;;;;;;;;;
2023/03/05 04:47:55;;;;;;;;;;;;;;;;;;6101564;23;19960;-86
2023/03/05 04:50:56;;;;;;;;;;;;;;;;;;6112238;23;19923;-86
2023/03/05 04:53:34;;;;;;;;;;;;;;;;;;6089353;23;19925;-86
2023/03/05 04:56:12;;;;;;;;;;;;;;;;;;;;;
2023/03/05 04:58:39;;;;;;;;;;;;;;;;;;6088567;23;20342;-86
2023/03/05 05:01:07;;;;;;;;;;;;;;;;;;6141369;22;19921;-87
2023/03/05 05:03:33;;;;;;;;;;;;;;;;;;6209915;23;19920;-86
2023/03/05 05:06:05;;;;;;;;;;;;;;;;;;6210632;23;19927;-87
2023/03/05 05:08:34;;;;;;;;;;;;;;;;;;6206938;23;19919;-87
2023/03/05 05:11:02;;;;;;;;;;;;;;;;;;6185269;23;19972;-86
2023/03/05 05:13:34;;;;;;;;;;;;;;;;;;6207584;23;19995;-86
2023/03/05 05:16:00;;;;;;;;;;;;;;;;;;6187420;23;19920;-86
2023/03/05 05:18:27;;;;;;;;;;;;;;;;;;6185537;23;20348;-87
2023/03/05 05:20:58;;;;;;;;;;;;;;;;;;6208000;23;19923;-86
2023/03/05 05:23:24;;;;;;;;;;;;;;;;;;6184014;23;20336;-86
2023/03/05 05:25:50;;;;;;;;;;;;;;;;;;6186647;23;19997;-86
2023/03/05 05:28:19;;;;;;;;;;;;;;;;;;6183617;23;19926;-86
2023/03/05 05:30:45;;;;;;;;;;;;;;;;;;6182988;23;20325;-86
2023/03/05 05:33:11;;;;;;;;;;;;;;;;;;6184206;23;19919;-86
2023/03/05 05:35:40;;;;;;;;;;;;;;;;;;6210327;23;19919;-86
2023/03/05 05:38:06;;;;;;;;;;;;;;;;;;6183439;23;19915;-86
2023/03/05 05:40:32;;;;;;;;;;;;;;;;;;6184847;23;20030;-85
2023/03/05 05:42:58;;;;;;;;;;;;;;;;;;6208921;23;19927;-86
2023/03/05 05:45:27;;;;;;;;;;;;;;;;;;6183363;23;20145;-86
2023/03/05 05:47:55;;;;;;;;;;;;;;;;;;6185283;23;19998;-86
2023/03/05 05:50:24;;;;;;;;;;;;;;;;;;6209787;23;19916;-86
2023/03/05 05:52:50;;;;;;;;;;;;;;;;;;6207894;23;20432;-86
2023/03/05 05:55:16;;;;;;;;;;;;;;;;;;6183876;23;19973;-86
2023/03/05 05:57:45;;;;;;;;;;;;;;;;;;6209840;23;20252;-86
2023/03/05 06:00:16;;;;;;;;;;;;;;;;;;6208290;23;19916;-87
2023/03/05 06:03:01;;;;;;;;;;;;;;;;;;;;;
2023/03/05 06:05:27;;;;;;;;;;;;;;;;;;6238275;22;19927;-87
2023/03/05 06:07:53;;;;;;;;;;;;;;;;;;6215267;22;20228;-87
2023/03/05 06:13:44;;;;;;;;;;;;;;;;;;6116568;23;20337;-87
2023/03/05 06:19:32;;;;;;;;;;;;;;;;;;6115561;23;19961;-87
2023/03/05 06:26:00;;;;;;;;;;;;;;;;;;;;;
2023/03/05 06:41:11;;;;;;;;;;;;;;;;;;;;;
2023/03/05 06:50:12;;;;;;;;;;;;;;;;;;6064091;23;19921;-86
2023/03/05 06:52:42;;;;;;;;;;;;;;;;;;5942773;24;19926;-86
2023/03/05 06:55:08;;;;;;;;;;;;;;;;;;5947169;24;19923;-86
2023/03/05 06:57:39;;;;;;;;;;;;;;;;;;5947290;24;19961;-86
2023/03/05 07:00:09;;;;;;;;;;;;;;;;;;6038615;23;19917;-86
2023/03/05 07:14:45;;;;;;;;;;;;;;;;;;6084433;23;19963;-86
2023/03/05 08:03:29;;;;;;;;;;;;;;;;;;6243063;22;19959;-92
2023/03/05 08:05:58;;;;;;;;;;;;;;;;;;6204951;23;19923;-92
2023/03/05 08:08:31;;;;;;;;;;;;;;;;;;6181255;23;19919;-92
2023/03/05 08:11:03;;;;;;;;;;;;;;;;;;6185990;23;19925;-92
2023/03/05 08:16:34;;;;;;;;;;;;;;;;;;;;;
2023/03/05 08:19:13;;;;;;;;;;;;;;;;;;;;;
2023/03/05 08:21:50;;;;;;;;;;;;;;;;;;6175463;23;19946;-91
2023/03/05 08:24:29;;;;;;;;;;;;;;;;;;;;;
2023/03/05 08:26:58;;;;;;;;;;;;;;;;;;6177338;23;20015;-91
2023/03/05 08:29:28;;;;;;;;;;;;;;;;;;6152472;23;19995;-92
2023/03/05 08:32:02;;;;;;;;;;;;;;;;;;6154343;23;20299;-92
2023/03/05 08:34:48;;;;;;;;;;;;;;;;;;6214404;23;20051;-92
2023/03/05 08:37:25;;;;;;;;;;;;;;;;;;6154077;23;20560;-91
2023/03/05 08:39:56;;;;;;;;;;;;;;;;;;6174554;23;19923;-90
2023/03/05 08:42:33;;;;;;;;;;;;;;;;;;6149917;23;19923;-91
2023/03/05 08:45:18;;;;;;;;;;;;;;;;;;;;;
2023/03/05 08:47:50;;;;;;;;;;;;;;;;;;6206534;23;20486;-91
2023/03/05 08:50:22;;;;;;;;;;;;;;;;;;6181410;23;19920;-91
2023/03/05 08:52:48;;;;;;;;;;;;;;;;;;6179697;23;19947;-91
2023/03/05 08:55:36;;;;;;;;;;;;;;;;;;;;;
2023/03/05 08:58:33;;;;;;;;;;;;;;;;;;6208160;23;19969;-91
2023/03/05 09:01:03;;;;;;;;;;;;;;;;;;6208554;23;19967;-90
2023/03/05 09:03:44;;;;;;;;;;;;;;;;;;6198073;23;19939;-90
2023/03/05 09:09:12;;;;;;;;;;;;;;;;;;6200214;23;19916;-90
2023/03/05 09:11:38;;;;;;;;;;;;;;;;;;6176684;23;19955;-90
2023/03/05 09:17:36;;;;;;;;;;;;;;;;;;6181464;23;19920;-90
2023/03/05 09:20:11;;;;;;;;;;;;;;;;;;6201678;23;20189;-90
2023/03/05 09:25:39;;;;;;;;;;;;;;;;;;6205157;23;20009;-92
2023/03/05 09:28:08;;;;;;;;;;;;;;;;;;6182337;23;20252;-90
2023/03/05 09:30:36;;;;;;;;;;;;;;;;;;6182667;23;19919;-91
2023/03/05 09:33:21;;;;;;;;;;;;;;;;;;;;;
2023/03/05 09:35:59;;;;;;;;;;;;;;;;;;6206005;23;20379;-90
2023/03/05 09:38:31;;;;;;;;;;;;;;;;;;6132077;23;19931;-90
2023/03/05 09:41:29;;;;;;;;;;;;;;;;;;;;;
2023/03/05 09:44:21;;;;;;;;;;;;;;;;;;6141875;23;20333;-90
2023/03/05 09:46:53;;;;;;;;;;;;;;;;;;6116776;23;20331;-89
2023/03/05 09:49:22;;;;;;;;;;;;;;;;;;6095021;23;19995;-90
2023/03/05 09:52:08;;;;;;;;;;;;;;;;;;6094389;23;19923;-90
2023/03/05 09:54:46;;;;;;;;;;;;;;;;;;6094570;23;19921;-89
2023/03/05 09:57:17;;;;;;;;;;;;;;;;;;6094670;23;20304;-90
2023/03/05 09:59:49;;;;;;;;;;;;;;;;;;6095253;23;19920;-91
2023/03/05 10:02:57;;;;;;;;;;;;;;;;;;6115712;23;20329;-90
2023/03/05 10:08:16;;;;;;;;;;;;;;;;;;6089561;23;20003;-90
2023/03/05 10:17:15;;;;;;;;;;;;;;;;;;6145309;23;20349;-90
2023/03/05 10:19:49;;;;;;;;;;;;;;;;;;6146266;23;20023;-90
2023/03/05 10:22:30;;;;;;;;;;;;;;;;;;6123042;23;19920;-91
2023/03/05 10:25:10;;;;;;;;;;;;;;;;;;6112982;23;19980;-91
2023/03/05 10:27:52;;;;;;;;;;;;;;;;;;6060108;23;20060;-91
2023/03/05 10:30:34;;;;;;;;;;;;;;;;;;6120570;23;20393;-90
2023/03/05 10:36:00;;;;;;;;;;;;;;;;;;6112029;23;19945;-90
2023/03/05 10:38:55;;;;;;;;;;;;;;;;;;;;;
2023/03/05 10:41:44;;;;;;;;;;;;;;;;;;6136209;23;20266;-92
2023/03/05 10:44:16;;;;;;;;;;;;;;;;;;6123218;23;20007;-92
2023/03/05 10:47:02;;;;;;;;;;;;;;;;;;6125478;23;20404;-90
2023/03/05 10:55:22;;;;;;;;;;;;;;;;;;6186464;23;19922;-90
2023/03/05 10:57:56;;;;;;;;;;;;;;;;;;6186318;23;19926;-91
2023/03/05 11:03:37;;;;;;;;;;;;;;;;;;;;;
2023/03/05 11:12:08;;;;;;;;;;;;;;;;;;6150493;23;19952;-91
2023/03/05 11:14:40;;;;;;;;;;;;;;;;;;6115192;23;20366;-91
2023/03/05 11:17:30;;;;;;;;;;;;;;;;;;6115226;23;19920;-90
2023/03/05 11:20:11;;;;;;;;;;;;;;;;;;6115745;23;19920;-91
2023/03/05 11:22:37;;;;;;;;;;;;;;;;;;6115939;23;19952;-91
2023/03/05 11:25:13;;;;;;;;;;;;;;;;;;;;;
2023/03/05 11:27:45;;;;;;;;;;;;;;;;;;6113104;23;19916;-90
2023/03/05 11:33:16;;;;;;;;;;;;;;;;;;6082145;23;19929;-91
2023/03/05 11:36:08;;;;;;;;;;;;;;;;;;6104030;23;19925;-91
2023/03/05 11:38:46;;;;;;;;;;;;;;;;;;6085828;23;19921;-90
2023/03/05 11:44:09;;;;;;;;;;;;;;;;;;6131909;23;19972;-90
2023/03/05 11:46:47;;;;;;;;;;;;;;;;;;;;;
2023/03/05 11:49:25;;;;;;;;;;;;;;;;;;6149463;23;20023;-91
2023/03/05 11:55:16;;;;;;;;;;;;;;;;;;6147874;23;19983;-90
2023/03/05 11:57:50;;;;;;;;;;;;;;;;;;6150552;23;19921;-90
2023/03/05 12:00:19;;;;;;;;;;;;;;;;;;6156289;23;20308;-91
2023/03/05 12:08:58;;;;;;;;;;;;;;;;;;6223488;23;19965;-91
2023/03/05 12:11:31;;;;;;;;;;;;;;;;;;6187017;23;19998;-90
2023/03/05 12:14:08;;;;;;;;;;;;;;;;;;6182656;23;19929;-91
2023/03/05 12:17:02;;;;;;;;;;;;;;;;;;6217665;23;20023;-90
2023/03/05 12:19:54;;;;;;;;;;;;;;;;;;6222591;23;19926;-90
2023/03/05 12:22:43;;;;;;;;;;;;;;;;;;6185848;23;20191;-90
2023/03/05 12:25:22;;;;;;;;;;;;;;;;;;;;;
2023/03/05 12:31:02;;;;;;;;;;;;;;;;;;6206998;23;19986;-90
2023/03/05 12:33:30;;;;;;;;;;;;;;;;;;6206625;23;20015;-91
2023/03/05 12:36:05;;;;;;;;;;;;;;;;;;6184586;23;19915;-90
2023/03/05 12:38:49;;;;;;;;;;;;;;;;;;6215382;23;19915;-90
2023/03/05 12:41:37;;;;;;;;;;;;;;;;;;6213128;23;20351;-90
2023/03/05 12:44:46;;;;;;;;;;;;;;;;;;6141188;23;19924;-91
2023/03/05 12:47:27;;;;;;;;;;;;;;;;;;6115277;23;19920;-90
2023/03/05 12:50:03;;;;;;;;;;;;;;;;;;6116556;23;20022;-90
2023/03/05 12:52:35;;;;;;;;;;;;;;;;;;6116864;23;19924;-90
2023/03/05 12:55:20;;;;;;;;;;;;;;;;;;6145554;23;19920;-91
2023/03/05 12:57:49;;;;;;;;;;;;;;;;;;6174538;23;20422;-90
2023/03/05 13:00:32;;;;;;;;;;;;;;;;;;6211001;23;20296;-91
2023/03/05 13:03:03;;;;;;;;;;;;;;;;;;6184718;23;19916;-90
2023/03/05 13:05:29;;;;;;;;;;;;;;;;;;6208721;23;19924;-91
2023/03/05 13:07:58;;;;;;;;;;;;;;;;;;6182564;23;19923;-90
2023/03/05 13:10:55;;;;;;;;;;;;;;;;;;;;;
2023/03/05 13:25:13;;;;;;;;;;;;;;;;;;6138960;23;20287;-91
2023/03/05 13:27:53;;;;;;;;;;;;;;;;;;6127462;23;19931;-90
2023/03/05 13:31:06;;;;;;;;;;;;;;;;;;;;;
2023/03/05 13:33:43;;;;;;;;;;;;;;;;;;6067855;23;19920;-90
2023/03/05 13:36:27;;;;;;;;;;;;;;;;;;6151850;23;19916;-91
2023/03/05 13:38:58;;;;;;;;;;;;;;;;;;6120402;23;20438;-90
2023/03/05 13:41:30;;;;;;;;;;;;;;;;;;6121301;23;19925;-90
2023/03/05 13:44:10;;;;;;;;;;;;;;;;;;6118356;23;20584;-91
2023/03/05 13:47:13;;;;;;;;;;;;;;;;;;6145945;23;19983;-90
2023/03/05 13:50:19;;;;;;;;;;;;;;;;;;6145076;23;19991;-90
2023/03/05 13:53:26;;;;;;;;;;;;;;;;;;;;;
2023/03/05 13:56:04;;;;;;;;;;;;;;;;;;6176876;23;19920;-90
2023/03/05 13:59:16;;;;;;;;;;;;;;;;;;;;;
2023/03/05 14:04:50;;;;;;;;;;;;;;;;;;6140832;23;19973;-89
2023/03/05 14:13:33;;;;;;;;;;;;;;;;;;;;;
2023/03/05 14:16:17;;;;;;;;;;;;;;;;;;6107327;23;20317;-90
2023/03/05 14:19:12;;;;;;;;;;;;;;;;;;;;;
2023/03/05 14:27:51;;;;;;;;;;;;;;;;;;;;;
2023/03/05 14:30:38;;;;;;;;;;;;;;;;;;6206997;23;19915;-90
2023/03/05 14:33:27;;;;;;;;;;;;;;;;;;6185365;23;19919;-91
2023/03/05 14:36:05;;;;;;;;;;;;;;;;;;6185338;23;19925;-90
2023/03/05 14:38:44;;;;;;;;;;;;;;;;;;6181989;23;20341;-89
2023/03/05 14:41:18;;;;;;;;;;;;;;;;;;6185269;23;19924;-90
2023/03/05 14:43:55;;;;;;;;;;;;;;;;;;;;;
2023/03/05 14:49:54;;;;;;;;;;;;;;;;;;;;;
2023/03/05 14:52:33;;;;;;;;;;;;;;;;;;6230071;23;20328;-91
2023/03/05 14:55:30;;;;;;;;;;;;;;;;;;;;;
2023/03/05 14:58:18;;;;;;;;;;;;;;;;;;;;;
2023/03/05 15:03:56;;;;;;;;;;;;;;;;;;6228399;23;19924;-90
2023/03/05 15:06:32;;;;;;;;;;;;;;;;;;6211369;23;19932;-91
2023/03/05 15:09:35;;;;;;;;;;;;;;;;;;6234387;23;20340;-91
2023/03/05 15:14:59;;;;;;;;;;;;;;;;;;6077166;23;20033;-91
2023/03/05 15:17:58;;;;;;;;;;;;;;;;;;6208594;23;20371;-90
2023/03/05 15:20:35;;;;;;;;;;;;;;;;;;6182167;23;19919;-90
2023/03/05 15:23:32;;;;;;;;;;;;;;;;;;;;;
2023/03/05 15:26:07;;;;;;;;;;;;;;;;;;;;;
2023/03/05 15:31:39;;;;;;;;;;;;;;;;;;;;;
2023/03/05 15:40:27;;;;;;;;;;;;;;;;;;6117454;23;20105;-90
2023/03/05 15:43:12;;;;;;;;;;;;;;;;;;6091308;23;20258;-91
2023/03/05 15:46:15;;;;;;;;;;;;;;;;;;6154748;23;20018;-90
2023/03/05 15:48:49;;;;;;;;;;;;;;;;;;6182544;23;19920;-90
2023/03/05 15:51:33;;;;;;;;;;;;;;;;;;6181818;23;19924;-91
2023/03/05 16:00:34;;;;;;;;;;;;;;;;;;;;;
2023/03/05 16:03:26;;;;;;;;;;;;;;;;;;;;;
2023/03/05 16:06:21;;;;;;;;;;;;;;;;;;;;;
2023/03/05 16:11:57;;;;;;;;;;;;;;;;;;6160533;23;19924;-92
2023/03/05 16:26:56;;;;;;;;;;;;;;;;;;6084713;23;19921;-91
2023/03/05 16:29:47;;;;;;;;;;;;;;;;;;;;;
2023/03/05 16:32:34;;;;;;;;;;;;;;;;;;6106903;23;19963;-92
2023/03/05 16:35:10;;;;;;;;;;;;;;;;;;6088921;23;20057;-91
2023/03/05 16:40:58;;;;;;;;;;;;;;;;;;;;;
2023/03/05 16:46:25;;;;;;;;;;;;;;;;;;6059434;23;20045;-90
2023/03/05 16:48:59;;;;;;;;;;;;;;;;;;6085419;23;19921;-91
2023/03/05 16:51:43;;;;;;;;;;;;;;;;;;6085527;23;20335;-90
2023/03/05 16:54:46;;;;;;;;;;;;;;;;;;;;;
2023/03/05 16:57:20;;;;;;;;;;;;;;;;;;6087734;23;19932;-91
2023/03/05 16:59:53;;;;;;;;;;;;;;;;;;6061879;23;20475;-91
2023/03/05 17:05:29;;;;;;;;;;;;;;;;;;;;;
2023/03/05 17:08:31;;;;;;;;;;;;;;;;;;;;;
2023/03/05 17:10:57;;;;;;;;;;;;;;;;;;6062333;23;19933;-91
2023/03/05 17:13:23;;;;;;;;;;;;;;;;;;6064796;23;19932;-91
2023/03/05 17:15:52;;;;;;;;;;;;;;;;;;6084564;23;19921;-90
2023/03/05 17:18:18;;;;;;;;;;;;;;;;;;6120895;23;19959;-91
2023/03/05 17:20:46;;;;;;;;;;;;;;;;;;6098692;23;20392;-91
2023/03/05 17:23:12;;;;;;;;;;;;;;;;;;6145496;23;20023;-90
2023/03/05 17:25:38;;;;;;;;;;;;;;;;;;6095147;23;19921;-91
2023/03/05 17:33:49;;;;;;;;;;;;;;;;;;6253236;22;19927;-84
2023/03/05 17:36:53;;;;;;;;;;;;;;;;;;6263448;22;19950;-85
2023/03/05 19:17:37;;;;;;;;;;;;;;;;;;6235863;23;19919;-86
2023/03/05 19:24:14;;;;;;;;;;;;;;;;;;;;;
2023/03/05 19:26:19;;;;;;;;;;;;;;;;;;6181456;23;19920;-86
2023/03/05 22:14:12;;;;;;;;;;;;;;;;;;6261635;22;20323;-91
2023/03/05 22:16:38;;;;;;;;;;;;;;;;;;6213518;22;19964;-91
2023/03/05 22:19:05;;;;;;;;;;;;;;;;;;6215413;22;19919;-91
2023/03/05 22:21:31;;;;;;;;;;;;;;;;;;6215359;22;19916;-91
2023/03/05 22:23:57;;;;;;;;;;;;;;;;;;6215732;22;19919;-91
2023/03/05 22:26:26;;;;;;;;;;;;;;;;;;6216322;22;20338;-91
2023/03/05 22:28:56;;;;;;;;;;;;;;;;;;6213437;22;19934;-91
2023/03/05 22:31:22;;;;;;;;;;;;;;;;;;6216938;22;19926;-91
2023/03/05 22:33:50;;;;;;;;;;;;;;;;;;6214748;22;19919;-90
2023/03/05 22:36:16;;;;;;;;;;;;;;;;;;6215540;22;19922;-90
2023/03/05 22:38:43;;;;;;;;;;;;;;;;;;6213404;22;19927;-91
2023/03/05 22:41:09;;;;;;;;;;;;;;;;;;6215934;22;19923;-91
2023/03/05 22:43:37;;;;;;;;;;;;;;;;;;6238140;22;19930;-91
2023/03/05 22:46:06;;;;;;;;;;;;;;;;;;6216185;22;19919;-91
2023/03/05 22:48:32;;;;;;;;;;;;;;;;;;6212933;22;20005;-91
2023/03/05 22:51:06;;;;;;;;;;;;;;;;;;6214371;22;19981;-91
2023/03/05 22:53:32;;;;;;;;;;;;;;;;;;6214574;22;19987;-90
2023/03/05 22:56:01;;;;;;;;;;;;;;;;;;6215636;22;19919;-91
2023/03/05 22:58:27;;;;;;;;;;;;;;;;;;6215654;22;19922;-91
2023/03/05 23:00:53;;;;;;;;;;;;;;;;;;6214526;22;19969;-91
2023/03/05 23:03:19;;;;;;;;;;;;;;;;;;6214439;22;20331;-91
2023/03/05 23:05:45;;;;;;;;;;;;;;;;;;6214109;22;19934;-91
2023/03/05 23:08:14;;;;;;;;;;;;;;;;;;6215853;22;19919;-91
2023/03/05 23:10:40;;;;;;;;;;;;;;;;;;6213547;22;20002;-91
2023/03/05 23:13:11;;;;;;;;;;;;;;;;;;6215326;22;19923;-91
2023/03/05 23:15:37;;;;;;;;;;;;;;;;;;6214154;22;19919;-91
2023/03/05 23:18:06;;;;;;;;;;;;;;;;;;6215440;22;19954;-91
2023/03/05 23:20:32;;;;;;;;;;;;;;;;;;6239185;22;19990;-91
2023/03/05 23:23:02;;;;;;;;;;;;;;;;;;6216925;22;19919;-91
2023/03/05 23:25:28;;;;;;;;;;;;;;;;;;6240469;22;19930;-91
2023/03/05 23:27:56;;;;;;;;;;;;;;;;;;6213136;22;19923;-90
2023/03/05 23:30:22;;;;;;;;;;;;;;;;;;6214772;22;19984;-91
2023/03/05 23:32:59;;;;;;;;;;;;;;;;;;6215096;22;20685;-91
2023/03/05 23:35:28;;;;;;;;;;;;;;;;;;6214731;22;19919;-91
2023/03/05 23:37:54;;;;;;;;;;;;;;;;;;6210364;22;20278;-90
2023/03/05 23:40:20;;;;;;;;;;;;;;;;;;6212559;22;19926;-91
2023/03/05 23:42:48;;;;;;;;;;;;;;;;;;6212317;22;19981;-90
2023/03/05 23:45:14;;;;;;;;;;;;;;;;;;6212755;22;19988;-91
2023/03/05 23:47:51;;;;;;;;;;;;;;;;;;6236357;22;19960;-91
2023/03/05 23:50:17;;;;;;;;;;;;;;;;;;6213014;22;19919;-90
2023/03/05 23:52:45;;;;;;;;;;;;;;;;;;6209933;22;19919;-91
2023/03/05 23:55:12;;;;;;;;;;;;;;;;;;6212223;22;19919;-91
2023/03/05 23:57:38;;;;;;;;;;;;;;;;;;6210322;22;20065;-91
